createdAt,value
2022-10-23T00:01:47.622Z,4.40
2022-10-23T00:04:25.510Z,4.20
2022-10-23T00:06:53.454Z,4.50
2022-10-23T00:09:24.797Z,4.60
2022-10-23T00:11:53.758Z,4.30
2022-10-23T00:14:25.181Z,4.40
2022-10-23T00:16:53.190Z,4.70
2022-10-23T00:19:20.993Z,4.60
2022-10-23T00:21:48.852Z,4.90
2022-10-23T00:24:16.603Z,4.60
2022-10-23T00:26:44.469Z,4.90
2022-10-23T00:29:12.310Z,4.60
2022-10-23T00:31:40.010Z,5.10
2022-10-23T00:34:08.872Z,5.40
2022-10-23T00:36:37.557Z,4.80
2022-10-23T00:39:05.597Z,4.80
2022-10-23T00:41:33.532Z,4.90
2022-10-23T00:44:04.398Z,4.70
2022-10-23T00:46:33.630Z,5.20
2022-10-23T00:49:02.662Z,4.90
2022-10-23T00:51:39.222Z,5.30
2022-10-23T00:54:25.038Z,5.10
2022-10-23T00:57:00.438Z,5.40
2022-10-23T00:59:30.050Z,5.40
2022-10-23T01:01:59.137Z,4.90
2022-10-23T01:04:28.348Z,4.70
2022-10-23T01:07:57.035Z,4.90
2022-10-23T01:10:52.550Z,5.40
2022-10-23T01:13:53.948Z,5.10
2022-10-23T01:17:11.487Z,5.70
2022-10-23T01:20:01.510Z,5.00
2022-10-23T01:23:10.317Z,5.70
2022-10-23T01:26:18.728Z,4.60
2022-10-23T01:29:05.013Z,5.40
2022-10-23T01:32:01.608Z,5.40
2022-10-23T01:35:01.422Z,5.20
2022-10-23T01:37:53.210Z,6.50
2022-10-23T01:40:31.362Z,6.00
2022-10-23T01:43:08.442Z,5.40
2022-10-23T01:45:46.096Z,5.40
2022-10-23T01:48:21.541Z,6.00
2022-10-23T01:50:53.354Z,6.10
2022-10-23T01:53:23.835Z,6.20
2022-10-23T01:55:52.623Z,6.70
2022-10-23T01:58:23.034Z,6.50
2022-10-23T02:00:54.958Z,6.40
2022-10-23T02:03:24.745Z,6.50
2022-10-23T02:05:52.575Z,6.80
2022-10-23T02:08:20.539Z,6.40
2022-10-23T02:11:00.766Z,6.70
2022-10-23T02:13:45.246Z,6.40
2022-10-23T02:16:36.753Z,6.40
2022-10-23T02:19:25.289Z,6.60
2022-10-23T02:22:11.594Z,6.30
2022-10-23T02:24:58.498Z,6.50
2022-10-23T02:27:40.121Z,6.90
2022-10-23T02:30:15.047Z,7.40
2022-10-23T02:32:50.165Z,7.50
2022-10-23T02:35:22.511Z,6.80
2022-10-23T02:38:01.618Z,7.00
2022-10-23T02:40:45.789Z,7.00
2022-10-23T02:43:24.662Z,7.00
2022-10-23T02:46:20.679Z,7.30
2022-10-23T02:49:11.421Z,6.90
2022-10-23T02:51:58.200Z,7.50
2022-10-23T02:54:55.258Z,7.60
2022-10-23T02:57:33.534Z,6.90
2022-10-23T03:00:11.698Z,7.30
2022-10-23T03:02:59.025Z,7.00
2022-10-23T03:05:34.456Z,6.90
2022-10-23T03:08:10.552Z,7.20
2022-10-23T03:10:38.838Z,6.60
2022-10-23T03:13:07.915Z,6.90
2022-10-23T03:15:35.779Z,7.30
2022-10-23T03:18:03.735Z,7.30
2022-10-23T03:20:31.542Z,7.30
2022-10-23T03:22:59.270Z,6.90
2022-10-23T03:25:27.615Z,7.00
2022-10-23T03:27:55.329Z,7.30
2022-10-23T03:30:23.078Z,7.00
2022-10-23T03:32:51.082Z,7.50
2022-10-23T03:35:18.795Z,6.80
2022-10-23T03:37:46.470Z,6.60
2022-10-23T03:40:14.316Z,7.40
2022-10-23T03:42:42.007Z,7.20
2022-10-23T03:45:10.132Z,6.10
2022-10-23T03:47:41.520Z,7.90
2022-10-23T03:50:11.214Z,6.60
2022-10-23T03:52:39.754Z,6.40
2022-10-23T03:55:08.634Z,5.90
2022-10-23T03:57:36.561Z,7.40
2022-10-23T04:00:06.841Z,6.70
2022-10-23T04:02:34.745Z,7.20
2022-10-23T04:05:02.581Z,5.90
2022-10-23T04:07:30.272Z,6.00
2022-10-23T04:09:57.981Z,5.80
2022-10-23T04:12:25.709Z,6.60
2022-10-23T04:14:53.446Z,7.20
2022-10-23T04:17:21.243Z,7.10
2022-10-23T04:19:48.997Z,7.00
2022-10-23T04:22:16.720Z,8.10
2022-10-23T04:24:46.901Z,6.40
2022-10-23T04:27:15.163Z,6.90
2022-10-23T04:29:42.852Z,6.10
2022-10-23T04:32:10.528Z,6.30
2022-10-23T04:34:38.233Z,5.80
2022-10-23T04:37:05.904Z,6.10
2022-10-23T04:39:33.608Z,6.10
2022-10-23T04:42:01.364Z,6.70
2022-10-23T04:44:29.063Z,7.00
2022-10-23T04:46:56.802Z,6.50
2022-10-23T04:49:24.491Z,7.40
2022-10-23T04:51:52.224Z,7.40
2022-10-23T04:54:19.999Z,7.50
2022-10-23T04:56:47.734Z,7.90
2022-10-23T04:59:15.470Z,7.50
2022-10-23T05:01:43.507Z,7.10
2022-10-23T05:04:11.283Z,8.00
2022-10-23T05:06:39.024Z,7.40
2022-10-23T05:09:06.768Z,8.20
2022-10-23T05:11:34.455Z,8.80
2022-10-23T05:14:02.143Z,8.90
2022-10-23T05:16:48.369Z,9.00
2022-10-23T05:19:26.491Z,8.50
2022-10-23T05:21:56.167Z,8.30
2022-10-23T05:24:26.132Z,8.40
2022-10-23T05:26:54.255Z,8.70
2022-10-23T05:29:22.438Z,9.50
2022-10-23T05:31:57.168Z,10.00
2022-10-23T05:34:28.297Z,9.60
2022-10-23T05:36:56.963Z,9.30
2022-10-23T05:39:24.847Z,9.70
2022-10-23T05:41:52.577Z,9.70
2022-10-23T05:44:20.459Z,9.20
2022-10-23T05:46:48.156Z,7.50
2022-10-23T05:49:16.037Z,8.10
2022-10-23T05:51:43.753Z,9.00
2022-10-23T05:54:11.579Z,8.30
2022-10-23T05:56:43.417Z,8.80
2022-10-23T05:59:11.251Z,9.90
2022-10-23T06:01:39.136Z,8.30
2022-10-23T06:04:07.120Z,8.40
2022-10-23T06:06:36.874Z,8.00
2022-10-23T06:09:04.943Z,7.60
2022-10-23T06:11:32.731Z,7.90
2022-10-23T06:14:01.240Z,7.10
2022-10-23T06:16:29.515Z,7.70
2022-10-23T06:18:57.659Z,8.00
2022-10-23T06:21:25.335Z,6.90
2022-10-23T06:23:53.133Z,7.70
2022-10-23T06:26:21.235Z,7.00
2022-10-23T06:28:49.020Z,7.70
2022-10-23T06:31:19.350Z,8.00
2022-10-23T06:33:47.164Z,8.10
2022-10-23T06:36:14.824Z,7.40
2022-10-23T06:38:42.684Z,8.50
2022-10-23T06:41:19.784Z,8.90
2022-10-23T06:43:50.615Z,9.80
2022-10-23T06:46:20.069Z,9.50
2022-10-23T06:48:48.490Z,8.50
2022-10-23T06:51:17.577Z,9.00
2022-10-23T06:53:46.314Z,8.20
2022-10-23T06:56:14.189Z,9.30
2022-10-23T06:58:42.552Z,8.60
2022-10-23T07:01:13.599Z,9.20
2022-10-23T07:03:41.858Z,8.70
2022-10-23T07:06:11.828Z,9.40
2022-10-23T07:08:40.146Z,9.60
2022-10-23T07:11:10.775Z,10.00
2022-10-23T07:13:40.679Z,8.90
2022-10-23T07:16:25.895Z,9.50
2022-10-23T07:19:01.144Z,9.40
2022-10-23T07:21:35.414Z,8.60
2022-10-23T07:24:04.556Z,9.40
2022-10-23T07:26:33.142Z,9.80
2022-10-23T07:29:01.064Z,8.50
2022-10-23T07:31:29.648Z,9.90
2022-10-23T07:33:57.595Z,9.00
2022-10-23T07:36:25.511Z,8.90
2022-10-23T07:38:53.484Z,8.40
2022-10-23T07:41:21.637Z,9.60
2022-10-23T07:43:49.738Z,8.50
2022-10-23T07:46:17.761Z,8.20
2022-10-23T07:48:45.758Z,8.40
2022-10-23T07:51:16.376Z,7.50
2022-10-23T07:53:44.453Z,8.00
2022-10-23T07:56:15.990Z,8.30
2022-10-23T07:58:44.389Z,7.80
2022-10-23T08:01:27.359Z,6.90
2022-10-23T08:03:55.322Z,6.30
2022-10-23T08:06:23.340Z,5.70
2022-10-23T08:08:51.559Z,7.40
2022-10-23T08:11:26.498Z,5.90
2022-10-23T08:13:57.827Z,6.40
2022-10-23T08:16:26.413Z,6.40
2022-10-23T08:18:54.397Z,7.40
2022-10-23T08:21:22.290Z,5.60
2022-10-23T08:23:53.946Z,6.90
2022-10-23T08:26:23.327Z,6.90
2022-10-23T08:28:53.031Z,4.70
2022-10-23T08:31:22.849Z,6.30
2022-10-23T08:33:51.703Z,5.10
2022-10-23T08:36:23.264Z,6.40
2022-10-23T08:38:56.081Z,5.60
2022-10-23T08:41:43.066Z,5.40
2022-10-23T08:44:28.429Z,5.80
2022-10-23T08:47:12.429Z,6.00
2022-10-23T08:49:59.422Z,5.20
2022-10-23T08:52:37.794Z,4.80
2022-10-23T08:55:17.778Z,4.80
2022-10-23T08:58:01.329Z,4.90
2022-10-23T09:00:35.230Z,3.90
2022-10-23T09:03:06.020Z,3.10
2022-10-23T09:05:49.303Z,2.90
2022-10-23T09:08:58.822Z,3.30
2022-10-23T09:11:47.561Z,2.70
2022-10-23T09:14:57.691Z,3.30
2022-10-23T09:17:41.371Z,3.50
2022-10-23T09:20:20.858Z,3.30
2022-10-23T09:22:55.394Z,3.20
2022-10-23T09:25:28.209Z,2.90
2022-10-23T09:28:05.715Z,3.20
2022-10-23T09:30:39.214Z,3.30
2022-10-23T09:33:30.946Z,3.10
2022-10-23T09:36:20.472Z,2.20
2022-10-23T09:38:53.606Z,2.30
2022-10-23T09:41:38.523Z,2.00
2022-10-23T09:44:22.969Z,1.60
2022-10-23T09:47:13.186Z,2.20
2022-10-23T09:49:49.568Z,1.80
2022-10-23T09:52:18.010Z,1.60
2022-10-23T09:54:51.579Z,1.80
2022-10-23T09:57:36.017Z,1.90
2022-10-23T10:00:20.484Z,1.80
2022-10-23T10:03:00.494Z,1.10
2022-10-23T10:05:36.225Z,1.40
2022-10-23T10:08:34.715Z,1.30
2022-10-23T10:11:14.590Z,1.40
2022-10-23T10:14:36.247Z,1.00
2022-10-23T10:17:35.024Z,1.20
2022-10-23T10:20:24.399Z,1.30
2022-10-23T10:23:34.933Z,1.60
2022-10-23T10:26:37.356Z,1.40
2022-10-23T10:29:19.271Z,1.50
2022-10-23T10:32:14.172Z,1.00
2022-10-23T10:34:49.835Z,0.90
2022-10-23T10:38:10.742Z,1.10
2022-10-23T10:41:03.980Z,1.50
2022-10-23T10:43:53.017Z,1.10
2022-10-23T10:46:38.475Z,1.30
2022-10-23T10:49:18.053Z,1.00
2022-10-23T10:52:31.117Z,1.60
2022-10-23T10:55:19.044Z,1.60
2022-10-23T10:58:39.146Z,1.40
2022-10-23T11:01:36.999Z,1.70
2022-10-23T11:04:28.570Z,1.50
2022-10-23T11:07:07.078Z,2.00
2022-10-23T11:09:37.679Z,1.70
2022-10-23T11:12:05.830Z,1.80
2022-10-23T11:14:35.112Z,1.70
2022-10-23T11:17:27.525Z,1.70
2022-10-23T11:20:10.421Z,1.70
2022-10-23T11:22:56.250Z,1.60
2022-10-23T11:25:44.148Z,1.40
2022-10-23T11:28:56.038Z,1.90
2022-10-23T11:32:08.845Z,2.20
2022-10-23T11:35:25.252Z,2.00
2022-10-23T11:38:25.014Z,2.10
2022-10-23T11:41:01.551Z,2.80
2022-10-23T11:43:47.765Z,3.00
2022-10-23T11:46:38.276Z,2.60
2022-10-23T11:49:21.364Z,1.30
2022-10-23T11:52:05.526Z,2.50
2022-10-23T11:54:33.417Z,2.30
2022-10-23T11:57:10.262Z,1.90
2022-10-23T11:59:47.844Z,1.90
2022-10-23T12:02:36.954Z,2.20
2022-10-23T12:05:32.172Z,1.40
2022-10-23T12:08:02.559Z,1.80
2022-10-23T12:10:36.236Z,1.60
2022-10-23T12:13:39.145Z,1.90
2022-10-23T12:16:08.138Z,1.50
2022-10-23T12:18:53.301Z,1.70
2022-10-23T12:21:28.671Z,1.60
2022-10-23T12:24:24.904Z,1.60
2022-10-23T12:27:25.650Z,1.80
2022-10-23T12:30:19.279Z,1.50
2022-10-23T12:33:44.221Z,1.30
2022-10-23T12:36:49.427Z,1.20
2022-10-23T12:39:39.260Z,1.20
2022-10-23T12:42:21.176Z,1.50
2022-10-23T12:45:04.180Z,1.10
2022-10-23T12:47:32.607Z,1.20
2022-10-23T12:50:00.627Z,1.20
2022-10-23T12:52:28.660Z,1.10
2022-10-23T12:54:56.936Z,1.30
2022-10-23T12:57:28.453Z,1.10
2022-10-23T13:00:04.667Z,1.30
2022-10-23T13:02:34.701Z,1.60
2022-10-23T13:05:08.375Z,1.20
2022-10-23T13:07:44.686Z,1.40
2022-10-23T13:10:20.367Z,1.10
2022-10-23T13:12:59.954Z,1.40
2022-10-23T13:15:46.245Z,1.60
2022-10-23T13:18:16.986Z,1.20
2022-10-23T13:21:05.561Z,1.20
2022-10-23T13:23:35.663Z,1.60
2022-10-23T13:26:21.673Z,1.40
2022-10-23T13:28:50.652Z,1.50
2022-10-23T13:31:18.460Z,1.60
2022-10-23T13:34:06.271Z,1.80
2022-10-23T13:36:39.631Z,1.30
2022-10-23T13:39:10.649Z,0.90
2022-10-23T13:41:42.789Z,0.80
2022-10-23T13:44:14.862Z,0.90
2022-10-23T13:46:44.551Z,0.80
2022-10-23T13:49:12.565Z,0.60
2022-10-23T13:51:52.385Z,1.10
2022-10-23T13:57:00.579Z,0.90
2022-10-23T13:59:28.500Z,0.80
2022-10-23T14:01:56.460Z,1.10
2022-10-23T14:04:24.437Z,1.40
2022-10-23T14:06:58.591Z,1.00
2022-10-23T14:09:27.019Z,1.20
2022-10-23T14:11:54.893Z,1.30
2022-10-23T14:14:22.776Z,1.10
2022-10-23T14:16:52.873Z,1.10
2022-10-23T14:19:20.925Z,1.20
2022-10-23T14:21:48.822Z,1.30
2022-10-23T14:24:16.770Z,1.60
2022-10-23T14:26:44.710Z,1.40
2022-10-23T14:29:21.276Z,1.50
2022-10-23T14:31:52.370Z,1.10
2022-10-23T14:34:20.697Z,1.10
2022-10-23T14:36:56.724Z,1.10
2022-10-23T14:39:32.000Z,1.10
2022-10-23T14:41:59.858Z,1.00
2022-10-23T14:44:28.136Z,1.00
2022-10-23T14:46:56.249Z,1.10
2022-10-23T14:49:24.090Z,1.20
2022-10-23T14:51:51.954Z,1.20
2022-10-23T14:54:20.075Z,1.00
2022-10-23T14:56:48.395Z,1.30
2022-10-23T14:59:16.341Z,1.70
2022-10-23T15:01:48.260Z,1.50
2022-10-23T15:04:16.710Z,1.20
2022-10-23T15:06:46.553Z,1.40
2022-10-23T15:09:15.770Z,1.50
2022-10-23T15:11:43.841Z,1.70
2022-10-23T15:14:12.226Z,1.80
2022-10-23T15:16:43.492Z,2.20
2022-10-23T15:19:18.372Z,2.10
2022-10-23T15:21:48.605Z,2.20
2022-10-23T15:24:17.954Z,2.80
2022-10-23T15:26:46.173Z,2.20
2022-10-23T15:29:15.215Z,2.20
2022-10-23T15:31:57.161Z,1.80
2022-10-23T15:34:28.835Z,2.00
2022-10-23T15:36:58.665Z,2.30
2022-10-23T15:39:29.522Z,3.10
2022-10-23T15:41:57.652Z,1.90
2022-10-23T15:44:29.285Z,2.90
2022-10-23T15:46:58.326Z,2.80
2022-10-23T15:49:31.946Z,2.00
2022-10-23T15:52:00.519Z,2.00
2022-10-23T15:54:31.899Z,1.80
2022-10-23T15:57:02.753Z,2.90
2022-10-23T15:59:32.268Z,2.70
2022-10-23T16:02:00.574Z,2.60
2022-10-23T16:04:29.046Z,2.50
2022-10-23T16:06:57.232Z,2.80
2022-10-23T16:09:25.167Z,2.50
2022-10-23T16:11:53.079Z,2.80
2022-10-23T16:14:22.625Z,3.30
2022-10-23T16:16:53.052Z,3.50
2022-10-23T16:19:21.021Z,2.30
2022-10-23T16:21:49.072Z,3.20
2022-10-23T16:24:17.109Z,2.60
2022-10-23T16:26:50.481Z,3.70
2022-10-23T16:29:22.337Z,3.10
2022-10-23T16:31:53.082Z,3.80
2022-10-23T16:34:22.060Z,5.40
2022-10-23T16:36:50.093Z,5.40
2022-10-23T16:39:20.803Z,5.60
2022-10-23T16:41:49.160Z,5.20
2022-10-23T16:44:17.204Z,5.20
2022-10-23T16:46:45.196Z,5.20
2022-10-23T16:49:14.606Z,5.50
2022-10-23T16:51:42.525Z,4.70
2022-10-23T16:54:14.717Z,5.10
2022-10-23T16:56:43.619Z,5.20
2022-10-23T16:59:11.994Z,3.90
2022-10-23T17:01:40.754Z,4.50
2022-10-23T17:04:08.914Z,6.40
2022-10-23T17:06:37.697Z,4.20
2022-10-23T17:09:06.374Z,4.00
2022-10-23T17:11:40.538Z,3.80
2022-10-23T17:14:19.924Z,5.50
2022-10-23T17:16:51.632Z,4.90
2022-10-23T17:19:45.040Z,5.10
2022-10-23T17:22:14.819Z,5.00
2022-10-23T17:24:46.376Z,5.40
2022-10-23T17:27:17.254Z,4.40
2022-10-23T17:29:45.248Z,3.60
2022-10-23T17:32:13.336Z,3.60
2022-10-23T17:34:41.380Z,4.90
2022-10-23T17:37:10.383Z,4.90
2022-10-23T17:39:38.237Z,5.10
2022-10-23T17:42:06.099Z,6.20
2022-10-23T17:44:34.269Z,4.90
2022-10-23T17:47:02.259Z,5.10
2022-10-23T17:49:30.158Z,5.40
2022-10-23T17:52:00.395Z,4.70
2022-10-23T17:54:28.625Z,5.40
2022-10-23T17:56:56.954Z,4.60
2022-10-23T17:59:24.931Z,5.90
2022-10-23T18:01:56.307Z,5.30
2022-10-23T18:04:25.201Z,6.30
2022-10-23T18:07:01.089Z,5.50
2022-10-23T18:09:28.990Z,6.30
2022-10-23T18:11:57.238Z,8.00
2022-10-23T18:14:27.339Z,8.10
2022-10-23T18:16:57.459Z,7.90
2022-10-23T18:19:25.374Z,8.70
2022-10-23T18:21:53.342Z,7.40
2022-10-23T18:24:21.269Z,8.30
2022-10-23T18:26:49.194Z,8.10
2022-10-23T18:29:18.040Z,8.40
2022-10-23T18:31:48.442Z,8.70
2022-10-23T18:34:23.707Z,7.80
2022-10-23T18:36:54.517Z,8.50
2022-10-23T18:39:26.179Z,7.60
2022-10-23T18:41:58.221Z,6.80
2022-10-23T18:44:31.288Z,7.70
2022-10-23T18:47:00.716Z,7.70
2022-10-23T18:49:28.909Z,8.60
2022-10-23T18:51:58.477Z,9.20
2022-10-23T18:54:30.039Z,8.80
2022-10-23T18:56:57.762Z,8.00
2022-10-23T18:59:25.544Z,8.50
2022-10-23T19:01:53.716Z,9.40
2022-10-23T19:04:22.103Z,9.00
2022-10-23T19:06:51.253Z,8.20
2022-10-23T19:09:20.346Z,7.70
2022-10-23T19:11:48.550Z,9.30
2022-10-23T19:14:16.759Z,8.00
2022-10-23T19:17:03.053Z,7.70
2022-10-23T19:19:43.254Z,8.20
2022-10-23T19:22:14.172Z,7.30
2022-10-23T19:24:49.308Z,7.10
2022-10-23T19:27:20.070Z,7.00
2022-10-23T19:29:51.809Z,7.20
2022-10-23T19:32:19.606Z,7.00
2022-10-23T19:34:47.510Z,7.20
2022-10-23T19:37:16.118Z,7.20
2022-10-23T19:39:43.985Z,7.10
2022-10-23T19:42:13.641Z,7.30
2022-10-23T19:44:41.954Z,8.10
2022-10-23T19:47:10.059Z,7.60
2022-10-23T19:49:38.581Z,8.00
2022-10-23T19:52:08.073Z,8.40
2022-10-23T19:54:36.105Z,9.10
2022-10-23T19:57:04.714Z,10.20
2022-10-23T19:59:36.521Z,9.50
2022-10-23T20:02:04.663Z,10.10
2022-10-23T20:04:32.534Z,11.90
2022-10-23T20:07:00.669Z,10.50
2022-10-23T20:09:28.480Z,7.90
2022-10-23T20:11:56.306Z,10.00
2022-10-23T20:14:24.065Z,8.90
2022-10-23T20:16:55.887Z,8.90
2022-10-23T20:19:24.138Z,9.20
2022-10-23T20:21:52.809Z,8.90
2022-10-23T20:24:22.784Z,8.30
2022-10-23T20:26:54.535Z,6.90
2022-10-23T20:29:26.901Z,7.40
2022-10-23T20:31:54.720Z,7.00
2022-10-23T20:34:22.489Z,6.60
2022-10-23T20:36:50.550Z,6.50
2022-10-23T20:39:25.767Z,7.00
2022-10-23T20:41:55.555Z,6.40
2022-10-23T20:44:24.504Z,7.80
2022-10-23T20:46:52.745Z,6.40
2022-10-23T20:49:22.098Z,7.10
2022-10-23T20:51:55.839Z,7.80
2022-10-23T20:54:26.990Z,8.00
2022-10-23T20:56:57.151Z,6.40
2022-10-23T20:59:25.485Z,4.70
2022-10-23T21:01:55.599Z,5.80
2022-10-23T21:04:27.628Z,6.70
2022-10-23T21:07:09.874Z,5.70
2022-10-23T21:09:39.504Z,6.00
2022-10-23T21:12:07.809Z,5.10
2022-10-23T21:14:36.469Z,5.70
2022-10-23T21:17:05.320Z,6.10
2022-10-23T21:19:33.093Z,5.60
2022-10-23T21:22:00.863Z,6.10
2022-10-23T21:24:28.603Z,5.90
2022-10-23T21:26:56.634Z,5.50
2022-10-23T21:29:24.394Z,6.10
2022-10-23T21:31:59.792Z,6.00
2022-10-23T21:34:28.369Z,5.60
2022-10-23T21:37:13.347Z,5.60
2022-10-23T21:39:44.040Z,6.30
2022-10-23T21:42:14.155Z,6.10
2022-10-23T21:44:42.057Z,7.90
2022-10-23T21:47:10.181Z,7.70
2022-10-23T21:49:37.996Z,7.10
2022-10-23T21:52:06.619Z,7.90
2022-10-23T21:54:34.373Z,7.30
2022-10-23T21:57:03.568Z,6.80
2022-10-23T21:59:33.150Z,6.70
2022-10-23T22:02:04.389Z,5.90
2022-10-23T22:04:32.376Z,6.10
2022-10-23T22:07:00.382Z,6.70
2022-10-23T22:09:28.903Z,7.00
2022-10-23T22:11:57.040Z,7.20
2022-10-23T22:14:24.705Z,7.30
2022-10-23T22:16:53.784Z,7.00
2022-10-23T22:19:23.490Z,7.00
2022-10-23T22:21:52.001Z,6.80
2022-10-23T22:24:20.195Z,7.70
2022-10-23T22:26:53.729Z,6.90
2022-10-23T22:29:26.710Z,7.00
2022-10-23T22:31:54.480Z,7.50
2022-10-23T22:34:48.389Z,6.80
2022-10-23T22:37:13.833Z,7.30
2022-10-23T22:39:41.952Z,7.20
2022-10-23T22:42:09.897Z,7.40
2022-10-23T22:44:37.708Z,6.90
2022-10-23T22:47:05.416Z,6.90
2022-10-23T22:49:33.114Z,7.10
2022-10-23T22:52:00.971Z,6.60
2022-10-23T22:54:30.706Z,6.80
2022-10-23T22:56:58.610Z,6.80
2022-10-23T22:59:26.572Z,7.10
2022-10-23T23:01:54.878Z,6.80
2022-10-23T23:04:38.992Z,7.00
2022-10-23T23:07:10.389Z,6.50
2022-10-23T23:09:41.604Z,7.00
2022-10-23T23:12:13.367Z,7.80
2022-10-23T23:14:42.575Z,7.20
2022-10-23T23:17:11.346Z,6.30
2022-10-23T23:19:39.488Z,6.40
2022-10-23T23:22:07.393Z,6.70
2022-10-23T23:24:35.210Z,6.80
2022-10-23T23:27:03.086Z,7.60
2022-10-23T23:29:31.985Z,9.00
2022-10-23T23:31:59.743Z,6.30
2022-10-23T23:34:29.010Z,7.60
2022-10-23T23:36:56.805Z,8.20
2022-10-23T23:39:26.220Z,8.20
2022-10-23T23:41:54.117Z,10.00
2022-10-23T23:44:21.932Z,9.60
2022-10-23T23:46:49.685Z,8.30
2022-10-23T23:49:17.348Z,9.10
2022-10-23T23:51:45.018Z,7.70
2022-10-23T23:54:12.721Z,7.90
2022-10-23T23:56:40.715Z,7.60
2022-10-23T23:59:08.502Z,9.00
